Time;durP1;ratioP1;P1;durP2;ratioP2;P2;SDS_P1;SDS_P2;PMS_P1;PMS_P2;Temp;Humidity;BMP_temperature;BMP_pressure;BME280_temperature;BME280_humidity;BME280_pressure;Samples;Min_cycle;Max_cycle;Signal;HPM_P1;HPM_P2
2023/04/20 00:02:06;;;;;;;1.52;0.93;;;;;;;;;;5008742;28;20037;-77
2023/04/20 00:04:33;;;;;;;0.98;0.88;;;;;;;;;;5008646;28;20687;-77
2023/04/20 00:06:59;;;;;;;1.48;1.00;;;;;;;;;;5007511;28;20034;-76
2023/04/20 00:09:28;;;;;;;1.02;0.93;;;;;;;;;;5009736;28;20076;-77
2023/04/20 00:11:57;;;;;;;0.77;0.70;;;;;;;;;;5006827;28;20029;-76
2023/04/20 00:14:23;;;;;;;2.20;1.05;;;;;;;;;;5011711;28;20030;-77
2023/04/20 00:16:49;;;;;;;0.57;0.50;;;;;;;;;;5008430;28;20077;-76
2023/04/20 00:19:16;;;;;;;0.82;0.68;;;;;;;;;;5010834;28;20484;-76
2023/04/20 00:21:42;;;;;;;1.52;1.08;;;;;;;;;;5007801;28;20037;-77
2023/04/20 00:24:08;;;;;;;1.33;1.10;;;;;;;;;;5014298;28;20038;-77
2023/04/20 00:26:34;;;;;;;1.80;1.02;;;;;;;;;;5015708;28;20068;-76
2023/04/20 00:29:00;;;;;;;1.20;0.90;;;;;;;;;;5008966;28;20038;-76
2023/04/20 00:31:26;;;;;;;1.05;0.95;;;;;;;;;;5004971;28;20033;-76
2023/04/20 00:33:51;;;;;;;1.45;0.80;;;;;;;;;;5013818;28;20032;-76
2023/04/20 00:36:17;;;;;;;0.75;0.70;;;;;;;;;;5011497;28;20037;-76
2023/04/20 00:38:43;;;;;;;1.25;0.82;;;;;;;;;;5013912;28;20037;-77
2023/04/20 00:41:09;;;;;;;1.08;0.80;;;;;;;;;;5014139;28;20079;-76
2023/04/20 00:43:37;;;;;;;0.70;0.70;;;;;;;;;;5013211;28;20144;-77
2023/04/20 00:46:03;;;;;;;1.20;1.02;;;;;;;;;;5013251;28;20099;-77
2023/04/20 00:48:29;;;;;;;0.82;0.80;;;;;;;;;;5010590;28;20046;-77
2023/04/20 00:50:55;;;;;;;1.70;0.80;;;;;;;;;;5012254;28;20029;-77
2023/04/20 00:53:21;;;;;;;0.85;0.80;;;;;;;;;;5010956;28;20120;-76
2023/04/20 00:55:47;;;;;;;1.60;0.85;;;;;;;;;;5007443;28;20033;-76
2023/04/20 00:58:12;;;;;;;0.85;0.73;;;;;;;;;;5011173;28;20065;-76
2023/04/20 01:00:39;;;;;;;1.55;0.80;;;;;;;;;;5011825;28;20032;-76
2023/04/20 01:03:06;;;;;;;1.15;0.80;;;;;;;;;;5013368;28;20022;-77
2023/04/20 01:05:32;;;;;;;0.80;0.70;;;;;;;;;;5010856;28;20072;-77
2023/04/20 01:07:58;;;;;;;0.55;0.47;;;;;;;;;;5012314;28;20038;-77
2023/04/20 01:10:25;;;;;;;1.38;0.68;;;;;;;;;;5014908;28;20149;-77
2023/04/20 01:12:50;;;;;;;1.35;0.80;;;;;;;;;;5010565;28;20083;-76
2023/04/20 01:15:16;;;;;;;1.95;0.93;;;;;;;;;;5010892;28;20068;-77
2023/04/20 01:17:42;;;;;;;2.28;0.90;;;;;;;;;;5013014;28;20034;-76
2023/04/20 01:20:13;;;;;;;0.77;0.60;;;;;;;;;;5011944;28;20850;-77
2023/04/20 01:22:45;;;;;;;0.77;0.77;;;;;;;;;;5013369;28;20046;-76
2023/04/20 01:25:11;;;;;;;1.15;0.70;;;;;;;;;;5011386;28;20042;-76
2023/04/20 01:27:37;;;;;;;0.65;0.60;;;;;;;;;;5007758;28;20026;-76
2023/04/20 01:30:03;;;;;;;1.00;0.90;;;;;;;;;;5010305;28;20181;-76
2023/04/20 01:32:30;;;;;;;1.15;0.80;;;;;;;;;;5009643;28;20029;-76
2023/04/20 01:34:56;;;;;;;1.05;0.88;;;;;;;;;;5008735;28;20072;-77
2023/04/20 01:37:24;;;;;;;0.52;0.52;;;;;;;;;;5012241;28;20057;-76
2023/04/20 01:39:50;;;;;;;1.05;0.80;;;;;;;;;;5014450;28;20053;-77
2023/04/20 01:42:16;;;;;;;0.80;0.80;;;;;;;;;;5010116;28;20034;-77
2023/04/20 01:44:42;;;;;;;1.13;1.00;;;;;;;;;;5011030;28;20084;-77
2023/04/20 01:47:08;;;;;;;1.38;0.70;;;;;;;;;;5009698;28;20041;-77
2023/04/20 01:49:34;;;;;;;0.80;0.80;;;;;;;;;;5010478;28;20044;-77
2023/04/20 01:52:00;;;;;;;0.82;0.75;;;;;;;;;;5011321;28;20107;-77
2023/04/20 01:54:26;;;;;;;0.80;0.80;;;;;;;;;;5010673;28;20037;-77
2023/04/20 01:56:52;;;;;;;0.85;0.70;;;;;;;;;;5008273;28;20389;-77
2023/04/20 01:59:18;;;;;;;1.73;0.68;;;;;;;;;;5013442;28;20041;-77
2023/04/20 02:01:44;;;;;;;0.93;0.75;;;;;;;;;;5012060;28;20025;-77
2023/04/20 02:04:10;;;;;;;0.85;0.55;;;;;;;;;;5009791;28;20033;-76
2023/04/20 02:06:36;;;;;;;0.60;0.60;;;;;;;;;;5009459;28;20046;-76
2023/04/20 02:09:02;;;;;;;1.08;0.85;;;;;;;;;;5009426;28;20026;-76
2023/04/20 02:11:27;;;;;;;0.60;0.60;;;;;;;;;;5010702;28;20071;-77
2023/04/20 02:13:53;;;;;;;0.50;0.45;;;;;;;;;;5012400;28;20415;-76
2023/04/20 02:16:20;;;;;;;0.90;0.70;;;;;;;;;;5010232;28;20077;-76
2023/04/20 02:18:46;;;;;;;0.80;0.60;;;;;;;;;;5011474;28;20029;-76
2023/04/20 02:21:12;;;;;;;0.80;0.73;;;;;;;;;;5009725;28;20036;-76
2023/04/20 02:23:38;;;;;;;0.90;0.82;;;;;;;;;;5012529;28;20034;-76
2023/04/20 02:26:04;;;;;;;0.95;0.80;;;;;;;;;;5015079;28;20041;-76
2023/04/20 02:28:30;;;;;;;1.95;0.65;;;;;;;;;;5011160;28;20060;-76
2023/04/20 02:30:56;;;;;;;1.00;0.90;;;;;;;;;;5015297;28;20021;-76
2023/04/20 02:33:22;;;;;;;1.15;0.70;;;;;;;;;;5009816;28;20476;-76
2023/04/20 02:35:48;;;;;;;0.82;0.80;;;;;;;;;;5009724;28;20488;-76
2023/04/20 02:38:14;;;;;;;1.50;1.17;;;;;;;;;;5012365;28;20061;-76
2023/04/20 02:40:40;;;;;;;0.82;0.75;;;;;;;;;;5015108;28;20033;-77
2023/04/20 02:43:06;;;;;;;1.13;0.88;;;;;;;;;;5009999;28;20492;-76
2023/04/20 02:45:32;;;;;;;1.15;0.70;;;;;;;;;;5013875;28;20021;-76
2023/04/20 02:47:58;;;;;;;1.33;0.90;;;;;;;;;;5010232;28;20353;-76
2023/04/20 02:50:24;;;;;;;0.88;0.57;;;;;;;;;;5010991;28;20041;-76
2023/04/20 02:52:50;;;;;;;0.73;0.73;;;;;;;;;;5009218;28;20022;-76
2023/04/20 02:55:16;;;;;;;1.00;0.88;;;;;;;;;;5007458;28;20464;-76
2023/04/20 02:57:42;;;;;;;1.02;0.82;;;;;;;;;;5007906;28;20064;-76
2023/04/20 03:00:08;;;;;;;0.88;0.73;;;;;;;;;;5010176;28;20033;-76
2023/04/20 03:02:35;;;;;;;1.20;0.98;;;;;;;;;;5011340;28;20038;-77
2023/04/20 03:05:02;;;;;;;0.95;0.77;;;;;;;;;;5015809;28;20091;-77
2023/04/20 03:07:28;;;;;;;0.60;0.60;;;;;;;;;;5012119;28;20021;-76
2023/04/20 03:09:54;;;;;;;0.73;0.70;;;;;;;;;;5009386;28;20030;-76
2023/04/20 03:12:21;;;;;;;3.75;1.02;;;;;;;;;;5009252;28;20388;-76
2023/04/20 03:14:47;;;;;;;0.65;0.65;;;;;;;;;;5010251;28;20034;-75
2023/04/20 03:17:13;;;;;;;0.68;0.68;;;;;;;;;;5013619;28;20040;-76
2023/04/20 03:19:39;;;;;;;1.35;1.10;;;;;;;;;;5007092;28;20030;-76
2023/04/20 03:22:05;;;;;;;0.63;0.60;;;;;;;;;;5012590;28;20021;-77
2023/04/20 03:24:31;;;;;;;2.40;1.25;;;;;;;;;;5007317;28;20038;-77
2023/04/20 03:26:57;;;;;;;2.53;0.70;;;;;;;;;;5006403;28;20034;-77
2023/04/20 03:29:23;;;;;;;0.90;0.88;;;;;;;;;;5011423;28;20044;-77
2023/04/20 03:31:49;;;;;;;1.13;0.90;;;;;;;;;;5009714;28;20021;-77
2023/04/20 03:34:15;;;;;;;0.88;0.80;;;;;;;;;;5004988;28;20021;-77
2023/04/20 03:36:44;;;;;;;1.35;0.98;;;;;;;;;;5009632;28;20018;-76
2023/04/20 03:39:10;;;;;;;1.75;1.30;;;;;;;;;;5012170;28;20444;-76
2023/04/20 03:41:36;;;;;;;0.95;0.88;;;;;;;;;;5015211;28;20066;-77
2023/04/20 03:44:02;;;;;;;0.70;0.70;;;;;;;;;;5009303;28;20026;-77
2023/04/20 03:46:28;;;;;;;1.42;1.02;;;;;;;;;;5004711;28;20030;-76
2023/04/20 03:48:54;;;;;;;2.20;1.08;;;;;;;;;;5008079;28;21500;-76
2023/04/20 03:51:20;;;;;;;1.00;0.80;;;;;;;;;;5010011;28;20038;-76
2023/04/20 03:53:46;;;;;;;1.58;0.77;;;;;;;;;;5010802;28;20860;-75
2023/04/20 03:56:12;;;;;;;2.00;1.35;;;;;;;;;;5013858;28;20033;-76
2023/04/20 03:58:38;;;;;;;1.85;1.00;;;;;;;;;;5017375;28;20083;-77
2023/04/20 04:01:08;;;;;;;1.30;1.10;;;;;;;;;;5018954;28;20029;-76
2023/04/20 04:03:34;;;;;;;1.95;1.17;;;;;;;;;;5011100;28;20030;-76
2023/04/20 04:06:01;;;;;;;2.95;1.27;;;;;;;;;;5012661;28;20504;-77
2023/04/20 04:08:27;;;;;;;3.47;1.20;;;;;;;;;;5009422;28;20030;-75
2023/04/20 04:10:53;;;;;;;1.40;1.30;;;;;;;;;;5018280;28;20116;-75
2023/04/20 04:13:19;;;;;;;1.52;1.08;;;;;;;;;;5013544;28;20038;-75
2023/04/20 04:15:45;;;;;;;2.97;0.90;;;;;;;;;;5009549;28;20064;-77
2023/04/20 04:18:11;;;;;;;1.17;0.90;;;;;;;;;;5016423;28;20100;-75
2023/04/20 04:20:36;;;;;;;0.95;0.85;;;;;;;;;;5017276;28;20485;-79
2023/04/20 04:23:02;;;;;;;1.75;1.10;;;;;;;;;;5025342;28;20484;-78
2023/04/20 04:25:28;;;;;;;1.67;1.10;;;;;;;;;;5017780;28;20405;-79
2023/04/20 04:27:54;;;;;;;2.45;1.30;;;;;;;;;;5014276;28;20033;-80
2023/04/20 04:30:20;;;;;;;3.03;1.35;;;;;;;;;;5021398;28;20512;-79
2023/04/20 04:32:47;;;;;;;5.55;1.98;;;;;;;;;;5018600;28;20034;-80
2023/04/20 04:35:13;;;;;;;1.83;1.20;;;;;;;;;;5014751;28;20532;-80
2023/04/20 04:37:40;;;;;;;1.23;1.13;;;;;;;;;;5017152;28;20041;-75
2023/04/20 04:43:28;;;;;;;1.95;1.13;;;;;;;;;;4973090;28;20030;-76
2023/04/20 04:45:54;;;;;;;2.35;1.38;;;;;;;;;;5014622;28;20061;-76
2023/04/20 04:48:20;;;;;;;2.13;1.33;;;;;;;;;;5023007;28;20017;-76
2023/04/20 04:50:46;;;;;;;2.50;1.20;;;;;;;;;;5024345;28;20419;-76
2023/04/20 04:53:12;;;;;;;4.07;1.33;;;;;;;;;;5026799;28;20021;-76
2023/04/20 04:55:38;;;;;;;3.00;1.63;;;;;;;;;;5028889;28;20037;-76
2023/04/20 04:58:04;;;;;;;1.58;1.20;;;;;;;;;;5024914;28;20080;-76
2023/04/20 05:00:30;;;;;;;2.08;1.52;;;;;;;;;;5018428;28;20480;-77
2023/04/20 05:02:56;;;;;;;2.03;1.60;;;;;;;;;;5012189;28;20033;-77
2023/04/20 05:05:24;;;;;;;3.58;1.98;;;;;;;;;;5019812;28;20452;-76
2023/04/20 05:07:50;;;;;;;2.25;1.48;;;;;;;;;;5018359;28;20086;-76
2023/04/20 05:10:16;;;;;;;2.60;1.20;;;;;;;;;;5013315;28;20093;-74
2023/04/20 05:12:43;;;;;;;2.75;1.35;;;;;;;;;;5024441;28;20076;-76
2023/04/20 05:15:09;;;;;;;2.25;1.45;;;;;;;;;;5017672;28;20354;-76
2023/04/20 05:17:35;;;;;;;2.83;1.73;;;;;;;;;;5010349;28;20152;-76
2023/04/20 05:20:01;;;;;;;3.35;1.90;;;;;;;;;;5011922;28;20026;-76
2023/04/20 05:22:27;;;;;;;2.15;1.30;;;;;;;;;;5014565;28;20030;-76
2023/04/20 05:24:53;;;;;;;3.70;1.65;;;;;;;;;;5027315;28;20029;-76
2023/04/20 05:27:19;;;;;;;3.88;1.50;;;;;;;;;;5021864;28;20026;-77
2023/04/20 05:29:45;;;;;;;4.57;2.25;;;;;;;;;;5024479;28;20484;-76
2023/04/20 05:32:11;;;;;;;2.22;1.52;;;;;;;;;;5025213;28;21092;-76
2023/04/20 05:34:37;;;;;;;4.65;1.77;;;;;;;;;;5010566;28;20108;-76
2023/04/20 05:37:04;;;;;;;4.18;1.77;;;;;;;;;;5015901;28;20119;-77
2023/04/20 05:39:30;;;;;;;2.53;1.70;;;;;;;;;;5013377;28;20058;-76
2023/04/20 05:41:56;;;;;;;2.10;1.58;;;;;;;;;;5013536;28;20032;-76
2023/04/20 05:44:22;;;;;;;3.03;1.60;;;;;;;;;;5026226;28;20021;-77
2023/04/20 05:46:49;;;;;;;2.22;1.40;;;;;;;;;;5027277;28;20400;-77
2023/04/20 05:49:15;;;;;;;2.95;1.45;;;;;;;;;;5020150;28;20026;-76
2023/04/20 05:51:41;;;;;;;3.13;1.42;;;;;;;;;;5025995;28;20040;-77
2023/04/20 05:54:06;;;;;;;3.00;1.60;;;;;;;;;;5019545;28;20041;-76
2023/04/20 05:56:32;;;;;;;2.67;1.30;;;;;;;;;;5027336;28;20033;-76
2023/04/20 05:58:59;;;;;;;2.35;1.95;;;;;;;;;;5017334;28;20037;-76
2023/04/20 06:01:25;;;;;;;2.38;1.30;;;;;;;;;;5024564;28;20144;-77
2023/04/20 06:03:51;;;;;;;2.55;1.85;;;;;;;;;;5017724;28;20032;-77
2023/04/20 06:06:17;;;;;;;2.92;1.83;;;;;;;;;;5009217;28;20026;-76
2023/04/20 06:08:43;;;;;;;3.85;1.80;;;;;;;;;;5016877;28;20033;-76
2023/04/20 06:11:09;;;;;;;1.83;1.50;;;;;;;;;;5026634;28;20025;-76
2023/04/20 06:13:35;;;;;;;2.28;1.40;;;;;;;;;;5009381;28;20022;-77
2023/04/20 06:16:01;;;;;;;2.03;1.70;;;;;;;;;;5015787;28;20030;-77
2023/04/20 06:18:28;;;;;;;5.18;2.10;;;;;;;;;;5028068;28;20037;-76
2023/04/20 06:20:54;;;;;;;1.95;1.40;;;;;;;;;;5019042;28;20706;-76
2023/04/20 06:23:20;;;;;;;3.10;1.70;;;;;;;;;;5010499;28;20358;-76
2023/04/20 06:25:46;;;;;;;3.97;2.13;;;;;;;;;;5015815;28;20280;-76
2023/04/20 06:28:12;;;;;;;2.58;1.55;;;;;;;;;;5024001;28;20499;-75
2023/04/20 06:30:38;;;;;;;3.13;1.60;;;;;;;;;;5023618;28;20491;-75
2023/04/20 06:33:04;;;;;;;1.88;1.58;;;;;;;;;;5024746;28;20118;-75
2023/04/20 06:35:30;;;;;;;3.05;1.83;;;;;;;;;;5025029;28;20115;-75
2023/04/20 06:37:56;;;;;;;1.88;1.55;;;;;;;;;;5014850;28;20037;-75
2023/04/20 06:40:22;;;;;;;1.90;1.58;;;;;;;;;;5018211;28;20029;-76
2023/04/20 06:42:48;;;;;;;4.88;1.85;;;;;;;;;;5023484;28;20048;-76
2023/04/20 06:45:14;;;;;;;3.13;1.67;;;;;;;;;;5024953;28;20480;-75
2023/04/20 06:47:40;;;;;;;2.78;1.77;;;;;;;;;;5017917;28;20028;-75
2023/04/20 06:50:08;;;;;;;3.97;1.67;;;;;;;;;;5025683;28;20436;-79
2023/04/20 06:52:35;;;;;;;2.08;1.48;;;;;;;;;;5016168;28;20018;-83
2023/04/20 06:55:01;;;;;;;7.00;2.00;;;;;;;;;;5027341;28;20494;-85
2023/04/20 06:57:27;;;;;;;3.45;1.70;;;;;;;;;;5021460;28;20026;-88
2023/04/20 06:59:53;;;;;;;2.42;1.73;;;;;;;;;;5018268;28;20029;-87
2023/04/20 07:02:21;;;;;;;1.90;1.38;;;;;;;;;;5012412;28;20048;-83
2023/04/20 07:04:47;;;;;;;3.67;2.05;;;;;;;;;;5021834;28;20078;-82
2023/04/20 07:07:13;;;;;;;1.85;1.27;;;;;;;;;;5025039;28;20037;-79
2023/04/20 07:09:39;;;;;;;3.95;1.98;;;;;;;;;;5020050;28;20030;-78
2023/04/20 07:12:05;;;;;;;2.40;1.45;;;;;;;;;;5023503;28;20038;-78
2023/04/20 07:14:31;;;;;;;2.33;1.40;;;;;;;;;;5027751;28;20120;-78
2023/04/20 07:16:57;;;;;;;1.95;1.38;;;;;;;;;;5009102;28;20100;-78
2023/04/20 07:19:23;;;;;;;2.00;1.50;;;;;;;;;;5009150;28;20038;-78
2023/04/20 07:21:49;;;;;;;5.38;1.75;;;;;;;;;;5023500;28;20029;-79
2023/04/20 07:24:15;;;;;;;2.05;1.50;;;;;;;;;;5012577;28;20034;-78
2023/04/20 07:26:41;;;;;;;2.03;1.63;;;;;;;;;;5015517;28;20029;-78
2023/04/20 07:29:07;;;;;;;2.05;1.27;;;;;;;;;;5012295;28;20080;-78
2023/04/20 07:31:32;;;;;;;1.83;1.63;;;;;;;;;;5024826;28;20025;-78
2023/04/20 07:33:59;;;;;;;2.22;1.20;;;;;;;;;;5007763;28;20033;-79
2023/04/20 07:36:25;;;;;;;3.42;1.38;;;;;;;;;;5007748;28;20053;-79
2023/04/20 07:38:51;;;;;;;1.85;1.30;;;;;;;;;;5007672;28;20037;-79
2023/04/20 07:41:17;;;;;;;3.72;1.75;;;;;;;;;;5027412;28;20033;-79
2023/04/20 07:43:43;;;;;;;2.72;1.33;;;;;;;;;;5025648;28;20032;-79
2023/04/20 07:46:09;;;;;;;1.50;1.40;;;;;;;;;;5027542;28;20025;-78
2023/04/20 07:48:36;;;;;;;1.88;1.65;;;;;;;;;;5027916;28;20014;-78
2023/04/20 07:51:02;;;;;;;2.13;1.40;;;;;;;;;;5025426;28;20053;-78
2023/04/20 07:53:31;;;;;;;1.85;1.33;;;;;;;;;;5015082;28;20034;-78
2023/04/20 07:55:57;;;;;;;3.30;1.48;;;;;;;;;;5009319;28;20033;-78
2023/04/20 07:58:23;;;;;;;3.83;1.70;;;;;;;;;;5015625;28;20026;-80
2023/04/20 08:00:49;;;;;;;1.30;1.20;;;;;;;;;;5012547;28;20064;-79
2023/04/20 08:03:15;;;;;;;3.03;1.85;;;;;;;;;;5026007;28;20546;-79
2023/04/20 08:05:41;;;;;;;1.65;1.48;;;;;;;;;;5026951;28;20034;-79
2023/04/20 08:08:07;;;;;;;3.15;1.55;;;;;;;;;;5027410;28;20053;-79
2023/04/20 08:10:33;;;;;;;4.20;2.05;;;;;;;;;;5026605;28;20026;-78
2023/04/20 08:12:59;;;;;;;4.40;1.88;;;;;;;;;;5019432;28;20037;-78
2023/04/20 08:15:25;;;;;;;1.73;1.55;;;;;;;;;;5027386;28;20056;-79
2023/04/20 08:17:51;;;;;;;2.38;1.35;;;;;;;;;;5027055;28;20045;-78
2023/04/20 08:20:17;;;;;;;2.92;1.70;;;;;;;;;;5027366;28;20064;-78
2023/04/20 08:22:44;;;;;;;1.80;1.45;;;;;;;;;;5015220;28;20037;-78
2023/04/20 08:25:10;;;;;;;3.17;1.40;;;;;;;;;;5009795;28;20503;-78
2023/04/20 08:27:36;;;;;;;2.15;1.55;;;;;;;;;;5014778;28;20505;-79
2023/04/20 08:30:03;;;;;;;2.00;1.58;;;;;;;;;;5007126;28;20381;-79
2023/04/20 08:32:29;;;;;;;2.78;1.88;;;;;;;;;;5016300;28;20106;-79
2023/04/20 08:34:55;;;;;;;2.72;1.48;;;;;;;;;;5022558;28;20032;-79
2023/04/20 08:37:22;;;;;;;2.45;1.40;;;;;;;;;;5024006;28;20083;-79
2023/04/20 08:39:48;;;;;;;2.20;1.33;;;;;;;;;;5027856;28;20036;-79
2023/04/20 08:42:15;;;;;;;1.67;1.20;;;;;;;;;;5029168;28;20033;-78
2023/04/20 08:44:41;;;;;;;2.00;1.75;;;;;;;;;;5026605;28;20040;-79
2023/04/20 08:47:09;;;;;;;2.10;1.52;;;;;;;;;;5030529;28;20103;-79
2023/04/20 08:49:37;;;;;;;1.30;1.20;;;;;;;;;;5029734;28;20037;-78
2023/04/20 08:52:03;;;;;;;2.50;1.67;;;;;;;;;;5030659;28;20025;-79
2023/04/20 08:54:29;;;;;;;2.42;1.27;;;;;;;;;;5029183;28;20026;-79
2023/04/20 08:56:55;;;;;;;1.92;1.48;;;;;;;;;;5029340;28;20053;-78
2023/04/20 08:59:22;;;;;;;3.60;1.73;;;;;;;;;;5013648;28;20037;-78
2023/04/20 09:01:47;;;;;;;2.17;1.25;;;;;;;;;;5030328;28;20034;-78
2023/04/20 09:04:16;;;;;;;1.67;1.25;;;;;;;;;;5030470;28;20029;-78
2023/04/20 09:06:46;;;;;;;2.75;1.52;;;;;;;;;;5019951;28;20488;-79
2023/04/20 09:09:12;;;;;;;4.10;1.30;;;;;;;;;;5027089;28;20022;-79
2023/04/20 09:11:39;;;;;;;1.92;1.48;;;;;;;;;;5026949;28;20029;-78
2023/04/20 09:14:09;;;;;;;3.97;1.77;;;;;;;;;;5029922;28;20018;-79
2023/04/20 09:16:35;;;;;;;1.65;1.55;;;;;;;;;;5028274;28;20042;-78
2023/04/20 09:19:02;;;;;;;3.65;1.73;;;;;;;;;;5030144;28;20476;-79
2023/04/20 09:21:28;;;;;;;3.72;1.48;;;;;;;;;;5023073;28;20509;-79
2023/04/20 09:24:00;;;;;;;1.80;1.63;;;;;;;;;;5010494;28;20148;-79
2023/04/20 09:26:26;;;;;;;2.17;1.20;;;;;;;;;;5016385;28;20089;-78
2023/04/20 09:28:52;;;;;;;2.25;1.30;;;;;;;;;;5023749;28;20030;-79
2023/04/20 09:31:20;;;;;;;1.95;1.40;;;;;;;;;;5028257;28;20128;-78
2023/04/20 09:33:54;;;;;;;2.90;1.65;;;;;;;;;;5024197;28;20109;-79
2023/04/20 09:36:20;;;;;;;2.15;1.25;;;;;;;;;;5024499;28;20038;-79
2023/04/20 09:38:46;;;;;;;2.72;1.90;;;;;;;;;;5010233;28;20425;-79
2023/04/20 09:41:13;;;;;;;2.28;1.35;;;;;;;;;;5012530;28;20075;-79
2023/04/20 09:43:40;;;;;;;1.88;1.17;;;;;;;;;;5016905;28;20493;-79
2023/04/20 09:46:06;;;;;;;2.03;1.30;;;;;;;;;;5009814;28;20025;-78
2023/04/20 09:48:34;;;;;;;1.98;1.52;;;;;;;;;;5012608;28;20037;-79
2023/04/20 09:51:02;;;;;;;2.30;1.60;;;;;;;;;;5010867;28;20544;-79
2023/04/20 09:53:29;;;;;;;2.55;1.23;;;;;;;;;;5017600;28;20362;-79
2023/04/20 09:55:57;;;;;;;1.27;1.17;;;;;;;;;;5012281;28;20030;-79
2023/04/20 09:58:23;;;;;;;3.50;1.70;;;;;;;;;;5017837;28;20473;-79
2023/04/20 10:00:49;;;;;;;1.75;1.42;;;;;;;;;;5025996;28;20037;-79
2023/04/20 10:03:16;;;;;;;1.77;1.30;;;;;;;;;;5029304;28;20033;-79
2023/04/20 10:05:42;;;;;;;2.58;1.60;;;;;;;;;;5025987;28;20030;-79
2023/04/20 10:08:08;;;;;;;2.20;1.40;;;;;;;;;;5027974;28;20029;-79
2023/04/20 10:10:47;;;;;;;4.13;1.42;;;;;;;;;;5015053;28;20017;-79
2023/04/20 10:13:14;;;;;;;2.58;1.73;;;;;;;;;;5009240;28;20477;-79
2023/04/20 10:15:41;;;;;;;2.75;1.17;;;;;;;;;;5021371;28;20037;-79
2023/04/20 10:18:19;;;;;;;2.10;1.65;;;;;;;;;;5027641;28;20049;-79
2023/04/20 10:20:45;;;;;;;1.42;1.17;;;;;;;;;;5012659;28;20389;-79
2023/04/20 10:23:13;;;;;;;2.13;1.70;;;;;;;;;;5009124;28;20105;-79
2023/04/20 10:25:40;;;;;;;1.77;1.40;;;;;;;;;;5015974;28;20030;-79
2023/04/20 10:28:09;;;;;;;2.70;1.38;;;;;;;;;;5012185;28;20815;-79
2023/04/20 10:30:35;;;;;;;2.70;1.52;;;;;;;;;;5023349;28;20151;-79
2023/04/20 10:33:04;;;;;;;1.83;1.45;;;;;;;;;;5011400;28;20034;-78
2023/04/20 10:35:40;;;;;;;2.15;1.30;;;;;;;;;;5008893;28;20073;-79
2023/04/20 10:38:07;;;;;;;2.35;1.45;;;;;;;;;;5009019;28;20030;-79
2023/04/20 10:40:32;;;;;;;2.00;1.38;;;;;;;;;;5009649;28;20469;-79
2023/04/20 10:42:58;;;;;;;3.47;1.40;;;;;;;;;;5023813;28;20032;-79
2023/04/20 10:45:37;;;;;;;2.10;1.60;;;;;;;;;;5028587;28;20032;-79
2023/04/20 10:48:09;;;;;;;1.88;1.10;;;;;;;;;;5028545;28;20385;-79
2023/04/20 10:50:35;;;;;;;1.23;1.13;;;;;;;;;;5024465;28;20469;-79
2023/04/20 10:53:02;;;;;;;2.17;1.38;;;;;;;;;;5015990;28;20499;-79
2023/04/20 10:55:28;;;;;;;2.90;1.63;;;;;;;;;;5008529;28;20021;-78
2023/04/20 10:57:54;;;;;;;2.35;1.60;;;;;;;;;;5018110;28;20461;-79
2023/04/20 11:00:21;;;;;;;2.65;1.55;;;;;;;;;;5009111;28;20021;-79
2023/04/20 11:02:48;;;;;;;1.40;1.10;;;;;;;;;;5010124;28;20050;-79
2023/04/20 11:05:14;;;;;;;2.55;1.52;;;;;;;;;;5015464;28;20045;-79
2023/04/20 11:07:47;;;;;;;1.83;1.30;;;;;;;;;;5010489;28;20030;-79
2023/04/20 11:10:13;;;;;;;2.03;1.40;;;;;;;;;;5021382;28;20025;-79
2023/04/20 11:12:39;;;;;;;1.92;1.40;;;;;;;;;;5027278;28;20032;-79
2023/04/20 11:15:05;;;;;;;2.65;1.65;;;;;;;;;;5028001;28;20469;-79
2023/04/20 11:17:32;;;;;;;2.35;1.35;;;;;;;;;;5012248;28;20133;-79
2023/04/20 11:20:13;;;;;;;2.47;1.40;;;;;;;;;;5016249;28;20033;-79
2023/04/20 11:22:39;;;;;;;1.90;1.25;;;;;;;;;;5016082;28;20057;-79
2023/04/20 11:25:06;;;;;;;1.63;1.40;;;;;;;;;;5008551;28;20026;-79
2023/04/20 11:27:33;;;;;;;1.25;1.10;;;;;;;;;;5017867;28;20400;-79
2023/04/20 11:29:59;;;;;;;1.67;1.25;;;;;;;;;;5009452;28;20022;-79
2023/04/20 11:32:26;;;;;;;2.15;1.55;;;;;;;;;;5008231;28;20022;-79
2023/04/20 11:34:59;;;;;;;1.52;1.23;;;;;;;;;;5019528;28;20037;-80
2023/04/20 11:37:25;;;;;;;2.75;1.67;;;;;;;;;;5012559;28;20489;-79
2023/04/20 11:40:08;;;;;;;1.52;1.23;;;;;;;;;;5015793;28;20029;-80
2023/04/20 11:42:35;;;;;;;2.20;1.50;;;;;;;;;;5025536;28;20025;-79
2023/04/20 11:45:02;;;;;;;2.85;1.42;;;;;;;;;;5027145;28;20140;-79
2023/04/20 11:47:28;;;;;;;2.45;1.42;;;;;;;;;;5026550;28;20460;-79
2023/04/20 11:49:54;;;;;;;2.15;1.30;;;;;;;;;;5027575;28;20029;-80
2023/04/20 11:52:20;;;;;;;1.73;1.45;;;;;;;;;;5013634;28;20033;-80
2023/04/20 11:54:46;;;;;;;1.85;1.48;;;;;;;;;;5019632;28;20030;-79
2023/04/20 11:57:12;;;;;;;1.45;1.30;;;;;;;;;;5025093;28;20037;-79
2023/04/20 11:59:38;;;;;;;3.83;1.42;;;;;;;;;;5007759;28;20034;-79
2023/04/20 12:02:04;;;;;;;1.48;1.20;;;;;;;;;;5015412;28;20026;-80
2023/04/20 12:04:31;;;;;;;1.75;1.15;;;;;;;;;;5007819;28;20030;-79
2023/04/20 12:06:58;;;;;;;1.85;1.20;;;;;;;;;;5020304;28;20025;-79
2023/04/20 12:09:24;;;;;;;2.33;1.70;;;;;;;;;;5027603;28;20029;-79
2023/04/20 12:11:50;;;;;;;1.88;1.42;;;;;;;;;;5023143;28;20022;-79
2023/04/20 12:14:16;;;;;;;1.15;0.88;;;;;;;;;;5012413;28;20037;-79
2023/04/20 12:16:42;;;;;;;2.05;1.40;;;;;;;;;;5011392;28;20123;-78
2023/04/20 12:19:08;;;;;;;2.10;1.05;;;;;;;;;;5028886;28;20021;-79
2023/04/20 12:21:34;;;;;;;1.45;1.10;;;;;;;;;;5027574;28;20042;-79
2023/04/20 12:24:00;;;;;;;1.42;1.17;;;;;;;;;;5015543;28;20034;-79
2023/04/20 12:26:26;;;;;;;1.55;1.30;;;;;;;;;;5018268;28;20045;-79
2023/04/20 12:28:52;;;;;;;3.72;1.60;;;;;;;;;;5022520;28;20025;-79
2023/04/20 12:31:18;;;;;;;1.92;1.48;;;;;;;;;;5031107;28;20120;-79
2023/04/20 12:33:44;;;;;;;1.52;1.38;;;;;;;;;;5021431;28;20080;-79
2023/04/20 12:36:16;;;;;;;1.85;1.40;;;;;;;;;;5022093;28;20091;-79
2023/04/20 12:38:42;;;;;;;1.90;1.38;;;;;;;;;;5020486;28;20034;-74
2023/04/20 12:41:12;;;;;;;1.65;1.20;;;;;;;;;;5030822;28;20034;-75
2023/04/20 12:43:38;;;;;;;2.50;1.60;;;;;;;;;;5025658;28;20022;-74
2023/04/20 12:46:04;;;;;;;2.08;1.20;;;;;;;;;;5023752;28;20053;-75
2023/04/20 12:48:30;;;;;;;1.20;1.08;;;;;;;;;;5021511;28;20460;-75
2023/04/20 12:50:56;;;;;;;1.77;1.45;;;;;;;;;;5026049;28;20029;-75
2023/04/20 12:53:22;;;;;;;1.90;1.60;;;;;;;;;;5029057;28;20420;-74
2023/04/20 12:55:48;;;;;;;2.78;2.10;;;;;;;;;;5030828;28;20460;-74
2023/04/20 12:58:20;;;;;;;1.92;1.58;;;;;;;;;;5028000;28;20028;-79
2023/04/20 13:00:46;;;;;;;1.75;1.58;;;;;;;;;;5018988;28;20127;-78
2023/04/20 13:03:12;;;;;;;1.70;1.58;;;;;;;;;;5017973;28;20040;-76
2023/04/20 13:05:38;;;;;;;3.25;1.90;;;;;;;;;;5023971;28;20029;-83
2023/04/20 13:08:04;;;;;;;3.35;2.00;;;;;;;;;;5025830;28;20076;-83
2023/04/20 13:10:30;;;;;;;3.38;2.50;;;;;;;;;;5030584;28;20404;-83
2023/04/20 13:12:56;;;;;;;4.25;2.40;;;;;;;;;;5026251;28;20017;-77
2023/04/20 13:15:22;;;;;;;3.90;2.40;;;;;;;;;;5029996;28;20029;-80
2023/04/20 13:17:48;;;;;;;2.70;2.28;;;;;;;;;;5028395;28;20560;-80
2023/04/20 13:20:14;;;;;;;3.38;2.20;;;;;;;;;;5014954;28;20041;-79
2023/04/20 13:22:40;;;;;;;4.03;2.25;;;;;;;;;;5019244;28;20539;-78
2023/04/20 13:25:07;;;;;;;4.53;2.75;;;;;;;;;;5011475;28;20018;-78
2023/04/20 13:27:33;;;;;;;4.07;2.40;;;;;;;;;;5028396;28;20052;-82
2023/04/20 13:29:59;;;;;;;3.85;2.38;;;;;;;;;;5021805;28;20075;-79
2023/04/20 13:32:25;;;;;;;3.88;2.33;;;;;;;;;;5012688;28;20108;-78
2023/04/20 13:34:51;;;;;;;3.92;1.92;;;;;;;;;;5018326;28;20415;-79
2023/04/20 13:37:18;;;;;;;3.22;2.03;;;;;;;;;;5017584;28;20033;-79
2023/04/20 13:39:44;;;;;;;4.65;2.08;;;;;;;;;;5021716;28;20030;-78
2023/04/20 13:42:10;;;;;;;3.33;1.90;;;;;;;;;;5019727;28;20030;-80
2023/04/20 13:44:36;;;;;;;3.55;2.50;;;;;;;;;;5019635;28;20045;-79
2023/04/20 13:47:02;;;;;;;5.70;2.53;;;;;;;;;;5018055;28;20582;-79
2023/04/20 13:49:28;;;;;;;3.88;2.63;;;;;;;;;;5025556;28;20354;-83
2023/04/20 13:51:55;;;;;;;3.97;2.35;;;;;;;;;;5016592;28;20079;-78
2023/04/20 13:54:21;;;;;;;7.32;2.35;;;;;;;;;;5021463;28;20037;-84
2023/04/20 13:56:47;;;;;;;3.10;2.25;;;;;;;;;;5015632;28;20560;-77
2023/04/20 13:59:22;;;;;;;3.58;2.17;;;;;;;;;;5017216;28;20026;-83
2023/04/20 14:01:48;;;;;;;3.33;2.30;;;;;;;;;;5018376;28;20042;-79
2023/04/20 14:04:15;;;;;;;7.03;2.30;;;;;;;;;;5021026;28;20087;-79
2023/04/20 14:06:44;;;;;;;2.97;2.20;;;;;;;;;;5027008;28;20036;-78
2023/04/20 14:09:17;;;;;;;3.67;2.30;;;;;;;;;;5019076;28;20029;-87
2023/04/20 14:11:43;;;;;;;3.22;2.30;;;;;;;;;;5023502;28;20451;-88
2023/04/20 14:14:15;;;;;;;4.43;3.08;;;;;;;;;;5025257;28;20677;-80
2023/04/20 14:16:45;;;;;;;4.53;2.20;;;;;;;;;;5015606;28;20049;-84
2023/04/20 14:19:11;;;;;;;10.75;2.95;;;;;;;;;;5021819;28;20037;-81
2023/04/20 14:21:38;;;;;;;6.15;2.33;;;;;;;;;;5023991;28;20113;-80
2023/04/20 14:24:05;;;;;;;3.35;2.30;;;;;;;;;;5015519;28;20045;-89
2023/04/20 14:26:30;;;;;;;4.13;2.35;;;;;;;;;;5023865;28;20038;-76
2023/04/20 14:28:56;;;;;;;3.80;2.38;;;;;;;;;;5014169;28;20032;-80
2023/04/20 14:31:22;;;;;;;3.95;2.38;;;;;;;;;;5024093;28;20048;-78
2023/04/20 14:33:48;;;;;;;4.47;2.35;;;;;;;;;;5017638;28;20029;-78
2023/04/20 14:36:14;;;;;;;4.40;2.42;;;;;;;;;;5019655;28;20026;-78
2023/04/20 14:38:40;;;;;;;5.65;2.60;;;;;;;;;;5017355;28;20117;-78
2023/04/20 14:41:06;;;;;;;3.88;2.50;;;;;;;;;;5010132;28;20033;-78
2023/04/20 14:43:33;;;;;;;7.38;2.65;;;;;;;;;;5019016;28;20028;-78